Time;durP1;ratioP1;P1;durP2;ratioP2;P2;SDS_P1;SDS_P2;PMS_P1;PMS_P2;Temp;Humidity;BMP_temperature;BMP_pressure;BME280_temperature;BME280_humidity;BME280_pressure;Samples;Min_cycle;Max_cycle;Signal;HPM_P1;HPM_P2
2023/04/18 00:00:10;;;;;;;16.63;11.77;;;;;;;11.60;100.00;94070.16;4944406;28;20240;-80
2023/04/18 00:02:38;;;;;;;19.30;12.07;;;;;;;11.62;100.00;94069.94;4952669;29;20775;-81
2023/04/18 00:05:07;;;;;;;16.93;10.90;;;;;;;11.66;100.00;94071.03;4950839;29;20276;-80
2023/04/18 00:07:34;;;;;;;17.37;11.80;;;;;;;11.66;100.00;94066.59;4952544;29;20201;-80
2023/04/18 00:10:02;;;;;;;18.77;11.73;;;;;;;11.70;100.00;94070.34;4951131;28;20204;-81
2023/04/18 00:12:29;;;;;;;18.23;11.43;;;;;;;11.73;100.00;94063.88;4949134;29;20224;-81
2023/04/18 00:14:57;;;;;;;16.57;11.40;;;;;;;11.63;100.00;94055.91;4949853;29;20619;-82
2023/04/18 00:17:25;;;;;;;15.30;10.67;;;;;;;11.62;100.00;94067.31;4952752;28;20202;-81
2023/04/18 00:19:52;;;;;;;16.07;10.67;;;;;;;11.69;100.00;94071.34;4953749;29;20236;-81
2023/04/18 00:22:21;;;;;;;13.57;10.37;;;;;;;11.76;100.00;94073.81;4952203;29;20261;-80
2023/04/18 00:24:48;;;;;;;15.90;11.23;;;;;;;11.82;100.00;94070.25;4953680;28;20236;-80
2023/04/18 00:27:15;;;;;;;14.77;11.00;;;;;;;11.79;100.00;94068.13;4953519;29;20663;-80
2023/04/18 00:29:42;;;;;;;17.03;11.43;;;;;;;11.77;100.00;94072.78;4950337;29;20202;-80
2023/04/18 00:32:09;;;;;;;21.03;11.93;;;;;;;11.81;100.00;94076.47;4951618;28;20302;-81
2023/04/18 00:34:35;;;;;;;14.23;10.87;;;;;;;11.82;100.00;94070.25;4953788;29;20221;-80
2023/04/18 00:37:02;;;;;;;15.27;10.97;;;;;;;11.78;100.00;94058.72;4954360;29;20235;-80
2023/04/18 00:39:30;;;;;;;14.90;10.93;;;;;;;11.80;100.00;94067.09;4953910;28;20276;-81
2023/04/18 00:41:57;;;;;;;21.43;13.20;;;;;;;11.78;100.00;94064.72;4953745;29;20205;-81
2023/04/18 00:44:24;;;;;;;23.03;14.83;;;;;;;11.78;100.00;94062.13;4953614;29;20204;-81
2023/04/18 00:46:51;;;;;;;23.67;16.17;;;;;;;11.81;100.00;94068.66;4954122;28;20613;-80
2023/04/18 00:49:17;;;;;;;25.33;17.37;;;;;;;11.82;100.00;94058.03;4956570;28;20204;-81
2023/04/18 00:51:45;;;;;;;30.80;18.50;;;;;;;11.87;100.00;94062.50;4960401;29;20257;-81
2023/04/18 00:54:12;;;;;;;27.27;18.13;;;;;;;11.82;100.00;94049.41;4954805;29;20653;-81
2023/04/18 00:56:44;;;;;;;24.33;17.50;;;;;;;11.81;100.00;94056.44;4952848;29;20205;-80
2023/04/18 00:59:13;;;;;;;26.67;17.10;;;;;;;11.84;100.00;94057.78;4953496;28;20264;-79
2023/04/18 01:01:42;;;;;;;26.47;17.30;;;;;;;11.85;100.00;94046.34;4947242;29;20265;-80
2023/04/18 01:04:08;;;;;;;26.43;18.53;;;;;;;11.84;100.00;94050.75;4951465;29;20202;-80
2023/04/18 01:06:36;;;;;;;28.13;18.93;;;;;;;11.79;100.00;94048.09;4951707;29;20935;-79
2023/04/18 01:09:04;;;;;;;30.10;19.67;;;;;;;11.82;100.00;94052.81;4951860;29;20293;-78
2023/04/18 01:11:31;;;;;;;30.97;20.03;;;;;;;11.84;100.00;94044.75;4949457;29;20256;-80
2023/04/18 01:14:03;;;;;;;29.17;19.53;;;;;;;11.84;100.00;94045.53;4950431;28;20261;-80
2023/04/18 01:16:32;;;;;;;25.67;17.67;;;;;;;11.88;100.00;94049.25;4949521;29;20202;-80
2023/04/18 01:18:58;;;;;;;25.30;17.50;;;;;;;11.86;100.00;94045.31;4949385;29;20198;-80
2023/04/18 01:21:30;;;;;;;27.10;16.07;;;;;;;11.84;100.00;94032.53;4948697;28;20198;-80
2023/04/18 01:24:00;;;;;;;22.40;15.17;;;;;;;11.84;100.00;94036.94;4947973;29;20201;-79
2023/04/18 01:26:29;;;;;;;23.17;15.97;;;;;;;11.87;100.00;94042.47;4951750;29;20201;-81
2023/04/18 01:28:56;;;;;;;24.13;16.00;;;;;;;11.87;100.00;94041.66;4949603;29;20205;-79
2023/04/18 01:31:22;;;;;;;20.63;14.87;;;;;;;11.87;100.00;94039.06;4951481;28;20201;-78
2023/04/18 01:33:49;;;;;;;20.53;14.73;;;;;;;11.85;100.00;94046.34;4951530;29;20206;-80
2023/04/18 01:36:16;;;;;;;21.43;14.93;;;;;;;11.76;100.00;94037.34;4950445;29;20194;-79
2023/04/18 01:38:43;;;;;;;20.93;14.90;;;;;;;11.74;100.00;94052.44;4949691;29;20253;-78
2023/04/18 01:41:10;;;;;;;21.63;14.03;;;;;;;11.73;100.00;94041.22;4950394;29;20217;-78
2023/04/18 01:43:38;;;;;;;21.83;14.30;;;;;;;11.75;100.00;94041.78;4946527;29;20288;-78
2023/04/18 01:46:05;;;;;;;18.87;13.70;;;;;;;11.71;100.00;94045.09;4947422;29;20680;-78
2023/04/18 01:48:32;;;;;;;18.87;12.77;;;;;;;11.72;100.00;94042.25;4950036;29;20204;-78
2023/04/18 01:50:59;;;;;;;18.67;12.43;;;;;;;11.69;100.00;94036.69;4950133;29;20289;-78
2023/04/18 01:53:26;;;;;;;17.27;12.27;;;;;;;11.69;100.00;94039.31;4945258;29;20265;-78
2023/04/18 01:55:52;;;;;;;16.47;11.70;;;;;;;11.70;100.00;94040.91;4943770;29;20244;-78
2023/04/18 01:58:22;;;;;;;15.33;11.47;;;;;;;11.72;100.00;94031.03;4950681;28;20980;-79
2023/04/18 02:00:52;;;;;;;15.10;10.80;;;;;;;11.77;100.00;94034.53;4948681;28;20225;-79
2023/04/18 02:03:19;;;;;;;16.27;11.10;;;;;;;11.75;100.00;94028.75;4945595;29;20712;-80
2023/04/18 02:05:46;;;;;;;16.23;11.43;;;;;;;11.75;100.00;94030.56;4948348;29;20201;-80
2023/04/18 02:08:14;;;;;;;13.27;9.90;;;;;;;11.73;100.00;94037.84;4949221;29;20649;-80
2023/04/18 02:10:41;;;;;;;16.50;11.47;;;;;;;11.64;100.00;94019.22;4948384;29;20201;-80
2023/04/18 02:13:08;;;;;;;14.43;10.83;;;;;;;11.73;100.00;94040.44;4951616;28;20257;-80
2023/04/18 02:15:35;;;;;;;15.30;10.87;;;;;;;11.70;100.00;94040.91;4949281;28;20210;-80
2023/04/18 02:18:04;;;;;;;16.83;11.20;;;;;;;11.58;100.00;94043.59;4951546;29;20201;-80
2023/04/18 02:20:32;;;;;;;13.53;10.70;;;;;;;11.47;100.00;94041.06;4951653;29;20217;-80
2023/04/18 02:22:59;;;;;;;14.70;11.13;;;;;;;11.33;100.00;94022.41;4951181;28;20202;-80
2023/04/18 02:25:27;;;;;;;15.43;11.33;;;;;;;11.42;100.00;94054.81;4948688;29;20645;-79
2023/04/18 02:27:55;;;;;;;18.77;12.60;;;;;;;11.38;100.00;94043.28;4950654;28;20240;-80
2023/04/18 02:30:22;;;;;;;20.67;12.10;;;;;;;11.34;100.00;94048.16;4949814;29;20280;-80
2023/04/18 02:32:51;;;;;;;17.10;12.60;;;;;;;11.33;100.00;94048.41;4948677;29;20205;-79
2023/04/18 02:35:20;;;;;;;19.30;13.03;;;;;;;11.36;100.00;94045.34;4950151;29;20210;-79
2023/04/18 02:37:47;;;;;;;19.40;13.83;;;;;;;11.28;100.00;94043.16;4948565;28;20197;-78
2023/04/18 02:40:14;;;;;;;20.40;13.73;;;;;;;11.33;100.00;94048.41;4948975;28;20297;-81
2023/04/18 02:42:41;;;;;;;19.80;13.40;;;;;;;11.35;100.00;94054.97;4947441;29;20197;-79
2023/04/18 02:45:08;;;;;;;20.63;14.90;;;;;;;11.42;100.00;94048.81;4950725;28;20217;-79
2023/04/18 02:47:35;;;;;;;20.30;14.43;;;;;;;11.45;100.00;94048.34;4949340;29;20212;-80
2023/04/18 02:50:03;;;;;;;19.03;13.83;;;;;;;11.42;100.00;94052.22;4949781;29;21240;-79
2023/04/18 02:52:31;;;;;;;21.57;14.53;;;;;;;11.40;100.00;94049.81;4946130;29;20221;-79
2023/04/18 02:54:59;;;;;;;18.93;14.47;;;;;;;11.45;100.00;94046.53;4947816;29;20204;-79
2023/04/18 02:57:26;;;;;;;20.80;15.10;;;;;;;11.48;100.00;94048.66;4946991;28;20202;-78
2023/04/18 02:59:53;;;;;;;22.27;15.40;;;;;;;11.52;100.00;94046.34;4948873;29;20767;-78
2023/04/18 03:02:20;;;;;;;21.30;15.03;;;;;;;11.55;100.00;94049.25;4946822;29;20235;-79
2023/04/18 03:04:47;;;;;;;23.87;15.40;;;;;;;11.54;100.00;94049.53;4949725;28;20649;-79
2023/04/18 03:07:14;;;;;;;23.47;15.70;;;;;;;11.59;100.00;94052.19;4947942;29;20208;-79
2023/04/18 03:09:42;;;;;;;22.80;16.50;;;;;;;11.44;100.00;94047.53;4947458;29;20315;-79
2023/04/18 03:12:09;;;;;;;22.43;16.57;;;;;;;11.47;100.00;94054.09;4950087;28;20637;-79
2023/04/18 03:14:36;;;;;;;23.43;16.17;;;;;;;11.39;100.00;94053.47;4948790;29;20911;-79
2023/04/18 03:17:03;;;;;;;24.10;16.63;;;;;;;11.38;100.00;94053.69;4953147;29;20237;-79
2023/04/18 03:19:30;;;;;;;24.87;16.90;;;;;;;11.38;100.00;94054.50;4954014;29;20310;-79
2023/04/18 03:21:57;;;;;;;22.60;16.13;;;;;;;11.44;100.00;94067.56;4950072;28;20536;-79
2023/04/18 03:24:24;;;;;;;26.37;17.03;;;;;;;11.43;100.00;94073.81;4952975;28;20197;-80
2023/04/18 03:26:52;;;;;;;25.93;16.93;;;;;;;11.45;100.00;94076.97;4948895;29;20225;-78
2023/04/18 03:29:19;;;;;;;24.77;17.23;;;;;;;11.48;100.00;94073.88;4949860;29;20596;-80
2023/04/18 03:31:46;;;;;;;28.43;17.73;;;;;;;11.51;100.00;94081.22;4949492;29;20202;-81
2023/04/18 03:34:12;;;;;;;26.87;17.23;;;;;;;11.48;100.00;94082.47;4950403;29;20205;-80
2023/04/18 03:36:40;;;;;;;27.73;18.90;;;;;;;11.52;100.00;94085.38;4954668;29;20260;-81
2023/04/18 03:39:06;;;;;;;24.53;17.47;;;;;;;11.55;100.00;94082.31;4953236;28;20217;-81
2023/04/18 03:41:33;;;;;;;28.87;18.67;;;;;;;11.58;100.00;94079.22;4954023;28;20230;-81
2023/04/18 03:44:01;;;;;;;28.63;18.93;;;;;;;11.52;100.00;94085.38;4953421;29;20202;-80
2023/04/18 03:46:28;;;;;;;28.30;18.10;;;;;;;11.54;100.00;94076.34;4953750;28;20638;-82
2023/04/18 03:48:55;;;;;;;25.67;18.27;;;;;;;11.60;100.00;94082.41;4953993;29;20206;-82
2023/04/18 03:51:22;;;;;;;29.33;18.67;;;;;;;11.47;100.00;94059.28;4952902;28;20204;-82
2023/04/18 03:53:49;;;;;;;25.63;17.77;;;;;;;11.58;100.00;94081.81;4952546;29;20225;-81
2023/04/18 03:56:16;;;;;;;27.80;18.43;;;;;;;11.58;100.00;94077.41;4950110;28;20217;-81
2023/04/18 03:58:42;;;;;;;26.67;16.47;;;;;;;11.60;100.00;94080.56;4951997;29;20209;-81
2023/04/18 04:01:11;;;;;;;25.80;17.13;;;;;;;11.63;100.00;94080.09;4952622;29;20628;-80
2023/04/18 04:03:38;;;;;;;27.23;17.50;;;;;;;11.63;100.00;94079.31;4952463;29;20202;-81
2023/04/18 04:06:06;;;;;;;25.90;16.67;;;;;;;11.49;100.00;94083.25;4952659;29;20214;-81
2023/04/18 04:08:32;;;;;;;24.40;16.67;;;;;;;11.49;100.00;94083.25;4954290;28;20714;-81
2023/04/18 04:10:59;;;;;;;22.07;15.73;;;;;;;11.42;100.00;94067.81;4954248;28;20198;-86
2023/04/18 04:13:26;;;;;;;26.43;16.60;;;;;;;11.54;100.00;94086.75;4946414;28;20281;-87
2023/04/18 04:15:53;;;;;;;22.17;16.33;;;;;;;11.45;100.00;94084.75;4949848;29;20201;-89
2023/04/18 04:18:29;;;;;;;21.33;15.40;;;;;;;11.44;100.00;94080.56;4955710;28;20220;-89
2023/04/18 04:20:57;;;;;;;18.57;14.50;;;;;;;11.53;100.00;94092.16;4957035;29;20225;-89
2023/04/18 04:23:24;;;;;;;18.23;14.30;;;;;;;11.17;100.00;94034.38;4954935;28;20213;-88
2023/04/18 04:25:51;;;;;;;19.53;13.97;;;;;;;11.60;100.00;94101.38;4952882;28;20657;-88
2023/04/18 04:28:21;;;;;;;19.50;13.90;;;;;;;11.52;100.00;94088.78;4953770;28;20205;-87
2023/04/18 04:30:49;;;;;;;17.70;13.80;;;;;;;11.49;100.00;94094.44;4953905;28;20583;-86
2023/04/18 04:33:16;;;;;;;18.33;14.17;;;;;;;11.49;100.00;94099.66;4954401;29;20228;-88
2023/04/18 04:35:45;;;;;;;18.57;13.90;;;;;;;11.39;100.00;94089.91;4954043;29;20212;-87
2023/04/18 04:38:13;;;;;;;19.53;13.93;;;;;;;11.56;100.00;94100.28;4953607;28;20209;-85
2023/04/18 04:40:40;;;;;;;19.03;14.97;;;;;;;11.64;100.00;94104.31;4953579;29;20233;-86
2023/04/18 04:43:11;;;;;;;18.60;14.20;;;;;;;11.63;100.00;94095.69;4953485;29;20298;-87
2023/04/18 04:45:40;;;;;;;18.97;14.97;;;;;;;11.72;100.00;94104.72;4954132;29;20211;-87
2023/04/18 04:48:07;;;;;;;19.83;14.80;;;;;;;11.72;100.00;94109.94;4953663;28;20205;-87
2023/04/18 04:50:37;;;;;;;19.23;14.20;;;;;;;11.67;100.00;94102.03;4953369;28;20200;-87
2023/04/18 04:53:06;;;;;;;18.37;13.67;;;;;;;11.78;100.00;94113.41;4953507;28;20205;-86
2023/04/18 04:55:33;;;;;;;19.53;14.60;;;;;;;11.70;100.00;94095.56;4954167;29;20256;-85
2023/04/18 04:58:00;;;;;;;18.03;14.50;;;;;;;11.71;100.00;94100.56;4953667;29;20204;-86
2023/04/18 05:00:27;;;;;;;18.70;14.40;;;;;;;11.80;100.00;94112.13;4954618;28;20279;-87
2023/04/18 05:02:55;;;;;;;21.60;13.80;;;;;;;11.90;100.00;94117.50;4953784;28;20303;-86
2023/04/18 05:05:22;;;;;;;18.80;14.40;;;;;;;11.96;100.00;94118.34;4953601;29;20640;-87
2023/04/18 05:07:49;;;;;;;19.30;14.10;;;;;;;11.89;100.00;94121.13;4953237;29;20691;-88
2023/04/18 05:10:18;;;;;;;19.53;14.60;;;;;;;11.92;100.00;94117.25;4952914;29;20271;-84
2023/04/18 05:12:45;;;;;;;19.90;14.43;;;;;;;11.98;100.00;94118.88;4952631;29;20216;-81
2023/04/18 05:15:12;;;;;;;23.27;14.97;;;;;;;12.01;100.00;94123.63;4948059;29;20232;-82
2023/04/18 05:17:39;;;;;;;21.67;15.23;;;;;;;12.04;100.00;94128.34;4948221;29;20269;-82
2023/04/18 05:20:07;;;;;;;21.80;15.17;;;;;;;12.02;100.00;94127.03;4951883;29;21514;-83
2023/04/18 05:22:33;;;;;;;20.93;14.73;;;;;;;11.98;100.00;94131.91;4951896;28;20239;-82
2023/04/18 05:25:00;;;;;;;18.80;14.27;;;;;;;12.00;100.00;94127.28;4951952;29;20209;-82
2023/04/18 05:27:29;;;;;;;21.60;14.47;;;;;;;12.02;100.00;94130.41;4951005;28;20228;-82
2023/04/18 05:29:56;;;;;;;20.33;14.77;;;;;;;12.05;100.00;94135.16;4951585;29;20224;-83
2023/04/18 05:32:23;;;;;;;21.23;15.53;;;;;;;11.77;100.00;94088.41;4953799;28;20193;-81
2023/04/18 05:34:50;;;;;;;22.97;16.13;;;;;;;12.01;100.00;94115.81;4949892;29;20201;-83
2023/04/18 05:37:18;;;;;;;24.47;16.20;;;;;;;12.14;100.00;94131.13;4953553;28;20576;-83
2023/04/18 05:39:45;;;;;;;26.07;18.30;;;;;;;12.06;100.00;94126.31;4951920;29;20276;-82
2023/04/18 05:42:11;;;;;;;22.10;16.07;;;;;;;12.12;100.00;94140.19;4951708;28;20685;-82
2023/04/18 05:44:40;;;;;;;22.77;16.07;;;;;;;12.14;100.00;94135.53;4952170;28;20652;-83
2023/04/18 05:47:06;;;;;;;21.17;15.23;;;;;;;12.14;100.00;94140.72;4951096;29;20284;-83
2023/04/18 05:49:33;;;;;;;29.90;19.50;;;;;;;12.16;100.00;94143.88;4951675;29;20296;-82
2023/04/18 05:52:00;;;;;;;20.73;15.20;;;;;;;12.17;100.00;94138.44;4952564;28;20855;-82
2023/04/18 05:54:27;;;;;;;21.67;15.10;;;;;;;12.13;100.00;94146.97;4951413;28;20655;-82
2023/04/18 05:56:55;;;;;;;21.90;15.87;;;;;;;12.14;100.00;94141.53;4946722;28;20205;-83
2023/04/18 05:59:22;;;;;;;27.10;17.20;;;;;;;12.19;100.00;94136.38;4951116;29;20208;-83
2023/04/18 06:01:51;;;;;;;26.87;17.53;;;;;;;12.30;100.00;94137.28;4951578;28;20328;-83
2023/04/18 06:04:19;;;;;;;26.13;17.40;;;;;;;12.40;100.00;94137.44;4951791;29;20205;-82
2023/04/18 06:06:46;;;;;;;23.23;17.23;;;;;;;12.37;100.00;94132.72;4951593;29;20284;-84
2023/04/18 06:09:13;;;;;;;23.87;16.47;;;;;;;12.44;100.00;94144.53;4953909;28;20198;-84
2023/04/18 06:11:40;;;;;;;24.80;16.57;;;;;;;12.51;100.00;94144.34;4952071;28;20210;-85
2023/04/18 06:14:07;;;;;;;23.77;16.37;;;;;;;12.42;100.00;94123.13;4951890;29;20220;-85
2023/04/18 06:16:33;;;;;;;23.63;16.63;;;;;;;12.67;100.00;94145.34;4950785;28;21154;-80
2023/04/18 06:19:02;;;;;;;20.70;15.10;;;;;;;12.68;100.00;94137.25;4950899;29;20374;-79
2023/04/18 06:21:29;;;;;;;22.23;15.73;;;;;;;12.75;100.00;94143.09;4946870;28;20779;-79
2023/04/18 06:23:55;;;;;;;22.87;15.17;;;;;;;12.72;100.00;94127.94;4950789;29;20205;-79
2023/04/18 06:26:22;;;;;;;22.57;15.63;;;;;;;12.79;100.00;94138.94;4949343;29;20209;-79
2023/04/18 06:28:49;;;;;;;20.10;15.10;;;;;;;12.80;100.00;94142.34;4949955;29;20635;-80
2023/04/18 06:31:16;;;;;;;20.43;14.43;;;;;;;12.79;100.00;94135.53;4948005;29;20193;-80
2023/04/18 06:33:43;;;;;;;21.60;15.20;;;;;;;12.79;100.00;94135.53;4950037;29;20557;-80
2023/04/18 06:36:11;;;;;;;20.80;15.13;;;;;;;12.83;100.00;94140.03;4948785;29;20202;-79
2023/04/18 06:38:38;;;;;;;21.67;14.87;;;;;;;12.79;100.00;94141.56;4948222;29;20571;-79
2023/04/18 06:41:05;;;;;;;19.17;13.67;;;;;;;12.78;100.00;94142.59;4946146;28;20341;-79
2023/04/18 06:43:32;;;;;;;20.97;14.97;;;;;;;12.83;100.00;94141.84;4945198;29;20265;-79
2023/04/18 06:45:59;;;;;;;22.77;16.23;;;;;;;12.86;100.00;94142.16;4948739;29;20632;-81
2023/04/18 06:48:27;;;;;;;19.03;14.03;;;;;;;12.96;100.00;94144.06;4952212;28;20626;-80
2023/04/18 06:50:53;;;;;;;22.40;14.60;;;;;;;12.99;100.00;94138.38;4954903;28;20624;-80
2023/04/18 06:53:22;;;;;;;20.73;13.80;;;;;;;13.06;100.00;94136.38;4953686;29;20213;-84
2023/04/18 06:55:49;;;;;;;21.17;14.30;;;;;;;13.08;100.00;94129.91;4955830;29;20216;-84
2023/04/18 06:58:16;;;;;;;21.00;14.03;;;;;;;13.17;100.00;94142.50;4954853;29;20209;-79
2023/04/18 07:00:46;;;;;;;21.80;14.77;;;;;;;13.22;100.00;94148.56;4948230;29;20579;-79
2023/04/18 07:03:13;;;;;;;20.33;14.50;;;;;;;13.25;100.00;94150.69;4951628;29;20715;-79
2023/04/18 07:05:40;;;;;;;21.07;14.53;;;;;;;13.29;100.00;94153.59;4949297;28;20660;-79
2023/04/18 07:08:07;;;;;;;23.57;15.23;;;;;;;13.35;100.00;94153.41;4953822;29;20598;-79
2023/04/18 07:10:35;;;;;;;21.07;14.47;;;;;;;13.35;100.00;94145.56;4954585;29;20209;-81
2023/04/18 07:13:02;;;;;;;22.43;15.30;;;;;;;13.42;100.00;94153.22;4954199;28;20269;-80
2023/04/18 07:15:29;;;;;;;19.97;14.20;;;;;;;13.46;100.00;94155.06;4949625;29;20202;-80
2023/04/18 07:17:56;;;;;;;20.93;14.87;;;;;;;13.57;100.00;94154.09;4948706;29;20216;-81
2023/04/18 07:20:23;;;;;;;19.90;14.33;;;;;;;13.58;100.00;94150.47;4941159;29;20233;-80
2023/04/18 07:22:51;;;;;;;22.63;15.07;;;;;;;13.65;100.00;94155.47;4945504;29;20280;-79
2023/04/18 07:25:22;;;;;;;22.50;15.07;;;;;;;13.73;100.00;94152.44;4955552;29;20322;-79
2023/04/18 07:27:50;;;;;;;22.43;15.00;;;;;;;13.80;100.00;94162.63;4946541;29;20681;-79
2023/04/18 07:30:17;;;;;;;19.17;13.67;;;;;;;13.88;100.00;94164.81;4944277;29;20213;-80
2023/04/18 07:32:44;;;;;;;16.97;13.13;;;;;;;13.88;100.00;94165.56;4947776;29;20197;-79
2023/04/18 07:35:10;;;;;;;19.17;12.93;;;;;;;13.94;100.00;94163.81;4945454;29;20193;-79
2023/04/18 07:37:37;;;;;;;17.87;13.43;;;;;;;14.04;100.00;94166.50;4956414;29;20240;-84
2023/04/18 07:40:05;;;;;;;19.73;13.00;;;;;;;14.08;100.00;94163.13;4956948;28;20194;-85
2023/04/18 07:42:32;;;;;;;17.37;12.33;;;;;;;14.09;100.00;94145.59;4944144;29;20222;-85
2023/04/18 07:45:00;;;;;;;15.20;11.37;;;;;;;14.28;100.00;94170.31;4956653;29;20198;-85
2023/04/18 07:47:28;;;;;;;17.33;12.50;;;;;;;14.30;100.00;94170.06;4956041;29;20672;-85
2023/04/18 07:49:56;;;;;;;14.73;11.00;;;;;;;14.34;100.00;94164.13;4956560;29;20193;-85
2023/04/18 07:52:23;;;;;;;17.00;11.53;;;;;;;14.43;100.00;94167.81;4957224;29;20190;-86
2023/04/18 07:54:50;;;;;;;16.93;11.87;;;;;;;14.52;99.33;94168.91;4955916;29;20202;-80
2023/04/18 07:57:17;;;;;;;16.80;12.10;;;;;;;14.47;98.71;94171.50;4957076;29;20282;-80
2023/04/18 07:59:44;;;;;;;16.70;11.30;;;;;;;14.43;98.12;94170.41;4955380;28;20216;-79
2023/04/18 08:02:12;;;;;;;15.27;10.67;;;;;;;14.48;98.51;94180.13;4944436;29;20281;-79
2023/04/18 08:04:39;;;;;;;15.53;9.70;;;;;;;14.57;96.56;94179.38;4936451;29;20319;-79
2023/04/18 08:07:06;;;;;;;14.97;10.83;;;;;;;14.56;95.39;94179.66;4946463;29;20205;-79
2023/04/18 08:09:33;;;;;;;13.57;9.87;;;;;;;14.56;94.41;94177.03;4951549;28;20692;-81
2023/04/18 08:11:59;;;;;;;16.27;9.63;;;;;;;14.58;95.05;94180.97;4941195;29;20194;-79
2023/04/18 08:14:26;;;;;;;13.90;9.97;;;;;;;14.61;93.33;94182.28;4950194;29;20194;-79
2023/04/18 08:16:53;;;;;;;14.57;10.10;;;;;;;14.65;93.81;94181.53;4938864;29;20673;-84
2023/04/18 08:19:23;;;;;;;15.93;10.40;;;;;;;14.69;93.84;94184.41;4940608;28;20257;-86
2023/04/18 08:21:50;;;;;;;16.20;10.50;;;;;;;14.63;93.97;94175.00;4937914;29;20361;-85
2023/04/18 08:24:19;;;;;;;14.60;10.33;;;;;;;14.72;93.59;94181.28;4936824;29;20613;-85
2023/04/18 08:26:45;;;;;;;22.07;10.73;;;;;;;14.81;94.14;94178.97;4954424;29;20213;-85
2023/04/18 08:29:12;;;;;;;19.33;9.80;;;;;;;14.88;93.67;94182.94;4948543;29;20205;-85
2023/04/18 08:31:39;;;;;;;15.50;7.97;;;;;;;14.62;89.17;94179.44;4955685;29;20206;-85
2023/04/18 08:34:06;;;;;;;11.70;7.97;;;;;;;14.69;88.78;94187.81;4956417;29;20613;-85
2023/04/18 08:36:36;;;;;;;10.57;7.97;;;;;;;14.77;89.52;94181.34;4941920;29;20632;-86
2023/04/18 08:39:03;;;;;;;10.57;7.63;;;;;;;14.73;88.67;94161.94;4937289;29;20202;-86
2023/04/18 08:41:35;;;;;;;11.43;7.33;;;;;;;14.89;88.00;94174.03;4936952;29;20575;-85
2023/04/18 08:44:03;;;;;;;12.23;8.17;;;;;;;15.06;86.15;94186.94;4936517;29;20213;-86
2023/04/18 08:46:34;;;;;;;10.60;6.80;;;;;;;15.15;82.73;94180.16;4936791;29;20202;-85
2023/04/18 08:49:03;;;;;;;11.83;8.00;;;;;;;15.14;86.03;94181.19;4955140;29;20542;-85
2023/04/18 08:51:31;;;;;;;9.60;7.57;;;;;;;15.27;85.48;94178.09;4955597;28;20198;-86
2023/04/18 08:54:03;;;;;;;9.63;7.57;;;;;;;15.42;84.10;94172.09;4955555;29;20236;-85
2023/04/18 08:56:30;;;;;;;15.37;7.90;;;;;;;15.59;84.86;94176.09;4952063;29;20186;-86
2023/04/18 08:58:59;;;;;;;13.60;7.50;;;;;;;15.79;86.40;94170.84;4944992;29;20202;-86
2023/04/18 09:01:49;;;;;;;10.63;7.43;;;;;;;16.03;83.40;94181.63;4936007;29;20238;-85
2023/04/18 09:04:33;;;;;;;9.87;6.73;;;;;;;16.19;80.66;94177.16;4944402;29;20201;-84
2023/04/18 09:06:59;;;;;;;10.00;7.33;;;;;;;16.32;80.75;94177.41;4944904;29;20684;-85
2023/04/18 09:09:28;;;;;;;8.33;6.90;;;;;;;16.35;79.10;94173.47;4938213;29;20197;-85
2023/04/18 09:12:07;;;;;;;10.07;6.43;;;;;;;16.38;76.51;94181.59;4936299;29;20198;-85
2023/04/18 09:14:36;;;;;;;9.33;6.60;;;;;;;16.35;76.03;94178.69;4937223;29;20233;-86
2023/04/18 09:17:03;;;;;;;10.73;6.67;;;;;;;16.29;75.43;94171.88;4949323;29;20217;-87
2023/04/18 09:19:32;;;;;;;9.20;6.73;;;;;;;16.43;76.49;94181.56;4957630;28;20197;-87
2023/04/18 09:22:01;;;;;;;7.73;6.30;;;;;;;16.50;77.55;94181.31;4935954;29;20629;-86
2023/04/18 09:24:30;;;;;;;8.77;6.70;;;;;;;16.40;77.19;94179.47;4946785;29;20280;-86
2023/04/18 09:26:58;;;;;;;9.43;7.00;;;;;;;16.43;74.28;94191.28;4954615;29;20221;-85
2023/04/18 09:29:45;;;;;;;12.27;6.60;;;;;;;15.89;81.39;94128.94;4949432;28;20202;-86
2023/04/18 09:32:22;;;;;;;11.70;7.20;;;;;;;15.84;84.90;94176.09;4935838;29;20198;-86
2023/04/18 09:34:49;;;;;;;9.53;6.77;;;;;;;15.60;86.82;94166.41;4943473;29;20205;-86
2023/04/18 09:37:16;;;;;;;9.57;5.83;;;;;;;15.16;87.85;94172.03;4951758;29;20205;-86
2023/04/18 09:39:44;;;;;;;9.23;5.57;;;;;;;15.02;88.45;94173.56;4960044;29;20177;-86
2023/04/18 09:42:12;;;;;;;7.53;5.10;;;;;;;14.75;89.19;94175.53;4946255;28;20213;-87
2023/04/18 09:44:58;;;;;;;7.03;5.47;;;;;;;14.60;90.10;94170.25;4945776;29;20208;-87
2023/04/18 09:47:26;;;;;;;5.47;3.93;;;;;;;14.46;89.75;94182.22;4951482;29;20252;-86
2023/04/18 09:50:00;;;;;;;10.50;3.17;;;;;;;14.29;90.15;94164.03;4935993;29;20199;-86
2023/04/18 09:52:34;;;;;;;6.40;3.10;;;;;;;14.19;90.66;94171.81;4937718;29;20713;-86
2023/04/18 09:55:05;;;;;;;3.33;2.30;;;;;;;13.93;91.70;94138.72;4944764;29;20260;-86
2023/04/18 09:57:33;;;;;;;8.03;2.83;;;;;;;14.07;93.02;94155.53;4940068;29;20564;-86
2023/04/18 10:00:09;;;;;;;4.53;3.00;;;;;;;14.01;94.61;94148.69;4944771;29;20210;-87
2023/04/18 10:02:44;;;;;;;3.50;2.80;;;;;;;14.16;95.80;94164.50;4939537;29;20233;-87
2023/04/18 10:05:13;;;;;;;3.87;2.33;;;;;;;14.30;95.54;94163.00;4945921;29;20288;-87
2023/04/18 10:07:43;;;;;;;6.30;2.43;;;;;;;14.41;94.29;94167.28;4939087;29;20700;-87
2023/04/18 10:10:12;;;;;;;5.20;3.10;;;;;;;14.50;95.03;94168.38;4942852;29;20205;-87
2023/04/18 10:12:41;;;;;;;4.10;3.13;;;;;;;14.65;94.41;94168.47;4944698;29;20201;-86
2023/04/18 10:15:10;;;;;;;6.03;2.60;;;;;;;14.84;93.02;94160.16;4942175;29;20209;-87
2023/04/18 10:17:43;;;;;;;8.43;3.30;;;;;;;14.94;91.98;94168.84;4940809;29;20643;-86
2023/04/18 10:20:18;;;;;;;6.13;3.60;;;;;;;15.02;90.36;94162.31;4946960;29;20198;-87
2023/04/18 10:22:46;;;;;;;5.47;3.27;;;;;;;15.03;90.67;94150.81;4943017;28;20222;-87
2023/04/18 10:25:14;;;;;;;7.97;3.67;;;;;;;15.00;91.14;94148.72;4941963;29;20200;-87
2023/04/18 10:28:01;;;;;;;5.03;3.50;;;;;;;15.13;90.68;94156.06;4946874;29;20228;-88
2023/04/18 10:30:51;;;;;;;5.90;3.63;;;;;;;15.17;90.57;94155.31;4954067;29;20198;-87
2023/04/18 10:33:26;;;;;;;5.07;3.20;;;;;;;15.23;90.47;94154.28;4934842;29;20203;-87
2023/04/18 10:36:01;;;;;;;6.07;3.37;;;;;;;15.08;89.00;94138.53;4934477;29;20204;-87
2023/04/18 10:38:28;;;;;;;4.87;3.10;;;;;;;15.16;88.33;94152.94;4934393;29;20205;-87
2023/04/18 10:41:20;;;;;;;6.47;3.20;;;;;;;15.29;87.49;94160.31;4934288;29;20187;-88
2023/04/18 10:44:13;;;;;;;3.87;2.93;;;;;;;15.15;87.19;94152.13;4934117;29;20735;-87
2023/04/18 10:46:41;;;;;;;3.10;2.60;;;;;;;15.20;85.40;94161.84;4934720;29;20221;-88
2023/04/18 10:49:16;;;;;;;5.43;3.10;;;;;;;15.14;85.06;94162.88;4934892;29;20214;-86
2023/04/18 10:51:44;;;;;;;4.43;3.27;;;;;;;14.95;85.31;94127.75;4952194;29;20200;-87
2023/04/18 10:54:13;;;;;;;5.10;3.07;;;;;;;15.23;84.78;94145.63;4954559;28;20288;-87
2023/04/18 10:56:52;;;;;;;2.90;2.50;;;;;;;15.32;83.40;94126.50;4955181;28;20197;-87
2023/04/18 10:59:21;;;;;;;4.70;2.70;;;;;;;15.84;82.83;94157.75;4953951;28;20197;-87
2023/04/18 11:02:08;;;;;;;4.53;2.60;;;;;;;16.14;82.91;94154.34;4957078;29;20230;-87
2023/04/18 11:04:36;;;;;;;6.30;2.47;;;;;;;16.34;81.18;94154.31;4964468;29;20264;-87
2023/04/18 11:07:03;;;;;;;4.80;2.70;;;;;;;16.63;80.84;94151.91;4958757;28;20588;-88
2023/04/18 11:09:30;;;;;;;4.00;2.57;;;;;;;16.87;79.48;94134.50;4955556;29;20205;-87
2023/04/18 11:12:07;;;;;;;3.33;2.80;;;;;;;16.96;77.43;94101.38;4953422;29;20206;-87
2023/04/18 11:14:40;;;;;;;4.47;2.80;;;;;;;17.65;75.48;94149.59;4953454;29;20193;-87
2023/04/18 11:17:19;;;;;;;4.93;3.17;;;;;;;17.84;76.15;94132.88;4953435;29;20266;-87
2023/04/18 11:19:46;;;;;;;5.57;2.50;;;;;;;18.14;76.06;94143.16;4953268;29;20274;-86